Time;durP1;ratioP1;P1;durP2;ratioP2;P2;SDS_P1;SDS_P2;PMS_P1;PMS_P2;Temp;Humidity;BMP_temperature;BMP_pressure;BME280_temperature;BME280_humidity;BME280_pressure;Samples;Min_cycle;Max_cycle;Signal;HPM_P1;HPM_P2
2021/09/17 00:01:16;;;;;;;3.83;1.23;;;;;;;22.48;60.16;100892.88;5067184;28;20041;-64
2021/09/17 00:03:42;;;;;;;1.77;0.90;;;;;;;22.49;60.07;100880.34;5064704;28;20051;-64
2021/09/17 00:06:08;;;;;;;2.20;1.05;;;;;;;22.49;60.07;100888.34;5067005;28;20040;-64
2021/09/17 00:08:33;;;;;;;3.55;1.00;;;;;;;22.49;59.69;100885.69;5067675;28;20098;-63
2021/09/17 00:10:59;;;;;;;2.70;0.93;;;;;;;22.48;60.22;100897.41;5065731;28;20467;-64
2021/09/17 00:13:25;;;;;;;1.92;0.88;;;;;;;22.49;60.02;100901.72;5068269;28;20036;-64
2021/09/17 00:15:50;;;;;;;3.20;0.90;;;;;;;22.47;60.38;100891.25;5054416;28;20422;-64
2021/09/17 00:18:16;;;;;;;3.85;0.90;;;;;;;22.48;60.27;100892.06;5067947;28;20039;-63
2021/09/17 00:20:42;;;;;;;2.45;0.90;;;;;;;22.48;60.13;100900.91;5049244;28;20040;-64
2021/09/17 00:23:08;;;;;;;2.47;1.00;;;;;;;22.49;60.28;100899.88;5067589;28;20025;-64
2021/09/17 00:25:34;;;;;;;3.90;1.20;;;;;;;22.49;60.33;100896.38;5065969;28;20472;-64
2021/09/17 00:28:00;;;;;;;3.50;0.95;;;;;;;22.48;60.33;100900.09;5059109;28;20029;-63
2021/09/17 00:30:28;;;;;;;1.77;0.80;;;;;;;22.49;60.18;100904.41;5067482;28;20475;-64
2021/09/17 00:32:58;;;;;;;2.42;0.80;;;;;;;22.48;60.23;100895.56;5067911;28;20480;-63
2021/09/17 00:35:24;;;;;;;1.58;0.80;;;;;;;22.48;60.39;100898.22;5071681;28;20147;-64
2021/09/17 00:37:50;;;;;;;3.08;1.20;;;;;;;22.47;60.05;100893.94;5071434;28;20524;-64
2021/09/17 00:40:16;;;;;;;2.13;0.82;;;;;;;22.48;59.91;100889.41;5062568;28;20032;-63
2021/09/17 00:42:42;;;;;;;2.70;1.00;;;;;;;22.48;60.09;100887.53;5070033;28;20040;-64
2021/09/17 00:45:10;;;;;;;3.10;1.30;;;;;;;22.49;60.21;100894.53;5070770;28;20059;-64
2021/09/17 00:47:36;;;;;;;2.40;0.95;;;;;;;22.48;60.00;100889.41;5066532;28;20063;-64
2021/09/17 00:50:08;;;;;;;2.60;1.00;;;;;;;22.48;59.88;100876.84;5070851;28;20039;-64
2021/09/17 00:52:33;;;;;;;2.15;0.85;;;;;;;22.48;59.89;100884.06;5062266;28;20044;-64
2021/09/17 00:54:59;;;;;;;2.63;0.82;;;;;;;22.48;59.63;100887.53;5070509;28;20025;-64
2021/09/17 00:57:26;;;;;;;3.17;0.70;;;;;;;22.48;59.69;100876.84;5071470;28;20032;-64
2021/09/17 00:59:52;;;;;;;2.72;0.80;;;;;;;22.48;59.77;100879.53;5071011;28;20039;-64
2021/09/17 01:02:18;;;;;;;2.33;0.90;;;;;;;22.48;59.57;100886.72;5069478;28;20028;-64
2021/09/17 01:04:44;;;;;;;3.17;0.80;;;;;;;22.47;59.62;100880.56;5061051;28;20379;-64
2021/09/17 01:07:10;;;;;;;2.97;1.25;;;;;;;22.47;59.34;100875.22;5061235;28;20095;-64
2021/09/17 01:09:38;;;;;;;3.28;1.00;;;;;;;22.47;59.50;100888.56;5071046;28;20407;-64
2021/09/17 01:12:05;;;;;;;2.40;0.77;;;;;;;22.46;59.16;100876.25;5066629;28;20102;-64
2021/09/17 01:14:32;;;;;;;1.55;0.70;;;;;;;22.47;59.28;100866.38;5071518;28;20490;-63
2021/09/17 01:16:58;;;;;;;2.90;1.10;;;;;;;22.47;59.17;100861.03;5060264;28;20476;-64
2021/09/17 01:19:24;;;;;;;4.38;1.00;;;;;;;22.46;59.52;100860.22;5056798;28;20024;-63
2021/09/17 01:22:01;;;;;;;4.30;1.00;;;;;;;22.44;59.10;100853.44;5069389;28;20110;-64
2021/09/17 01:24:27;;;;;;;2.97;1.17;;;;;;;22.45;59.21;100847.88;5070784;28;20039;-64
2021/09/17 01:26:53;;;;;;;4.15;1.20;;;;;;;22.45;59.17;100847.88;5069634;28;20036;-64
2021/09/17 01:29:20;;;;;;;2.65;0.90;;;;;;;22.46;59.37;100840.69;5068824;28;20035;-64
2021/09/17 01:31:46;;;;;;;3.70;0.95;;;;;;;22.45;59.20;100829.16;5068938;28;20510;-64
2021/09/17 01:34:15;;;;;;;2.85;0.75;;;;;;;22.45;59.38;100821.16;5069036;28;20127;-64
2021/09/17 01:36:41;;;;;;;4.22;1.13;;;;;;;22.44;59.56;100811.50;5070338;28;20032;-63
2021/09/17 01:39:07;;;;;;;3.33;0.90;;;;;;;22.46;59.30;100813.94;5070370;28;20529;-63
2021/09/17 01:41:32;;;;;;;2.80;1.00;;;;;;;22.46;59.45;100819.28;5058031;28;20114;-63
2021/09/17 01:43:58;;;;;;;2.92;1.10;;;;;;;22.45;59.40;100818.47;5068941;28;20029;-64
2021/09/17 01:46:23;;;;;;;2.75;1.08;;;;;;;22.45;59.63;100826.50;5069844;28;20452;-64
2021/09/17 01:48:49;;;;;;;3.55;1.08;;;;;;;22.45;59.37;100818.47;5049008;28;20118;-64
2021/09/17 01:51:15;;;;;;;1.15;0.70;;;;;;;22.46;59.20;100811.28;5060184;28;20040;-64
2021/09/17 01:53:40;;;;;;;2.15;0.90;;;;;;;22.46;59.40;100813.94;5066819;28;20052;-64
2021/09/17 01:56:06;;;;;;;1.70;0.75;;;;;;;22.45;59.60;100821.16;5070157;28;20448;-64
2021/09/17 01:58:33;;;;;;;1.95;0.70;;;;;;;22.46;59.54;100812.09;5068675;28;20033;-64
2021/09/17 02:01:00;;;;;;;3.78;1.00;;;;;;;22.47;59.59;100815.59;5068798;28;20032;-64
2021/09/17 02:03:25;;;;;;;2.33;0.90;;;;;;;22.46;59.79;100812.09;5068073;28;20041;-63
2021/09/17 02:05:51;;;;;;;1.35;0.77;;;;;;;22.46;59.86;100822.78;5068310;28;20543;-64
2021/09/17 02:08:17;;;;;;;1.92;0.82;;;;;;;22.46;59.67;100805.94;5069650;28;20970;-64
2021/09/17 02:10:43;;;;;;;3.08;0.85;;;;;;;22.46;60.02;100804.06;5069134;28;20200;-64
2021/09/17 02:13:09;;;;;;;2.78;0.82;;;;;;;22.47;60.01;100797.69;5069645;28;20517;-63
2021/09/17 02:15:35;;;;;;;1.92;0.90;;;;;;;22.48;59.93;100785.16;5067385;28;20036;-64
2021/09/17 02:18:00;;;;;;;3.35;0.80;;;;;;;22.46;60.01;100774.66;5067555;28;20051;-63
2021/09/17 02:20:26;;;;;;;2.75;0.70;;;;;;;22.47;59.65;100765.63;5067477;28;20102;-64
2021/09/17 02:22:52;;;;;;;2.38;0.93;;;;;;;22.48;59.84;100753.88;5068716;28;20108;-64
2021/09/17 02:25:18;;;;;;;4.22;1.10;;;;;;;22.47;59.79;100770.16;5067116;28;20139;-64
2021/09/17 02:27:43;;;;;;;2.85;0.80;;;;;;;22.47;60.12;100759.44;5068114;28;20111;-63
2021/09/17 02:30:10;;;;;;;3.05;0.80;;;;;;;22.46;59.70;100758.63;5067505;28;20484;-64
2021/09/17 02:32:36;;;;;;;2.90;1.17;;;;;;;22.47;59.83;100754.91;5069561;28;20040;-63
2021/09/17 02:35:03;;;;;;;2.65;0.88;;;;;;;22.46;59.65;100753.28;5068904;28;20598;-64
2021/09/17 02:37:28;;;;;;;2.33;0.90;;;;;;;22.46;59.59;100737.25;5068121;28;20081;-63
2021/09/17 02:39:54;;;;;;;2.42;0.82;;;;;;;22.47;59.64;100725.53;5051489;28;20063;-64
2021/09/17 02:42:20;;;;;;;2.58;0.90;;;;;;;22.46;59.42;100721.22;5051149;28;20036;-64
2021/09/17 02:44:45;;;;;;;2.70;0.85;;;;;;;22.45;59.59;100724.91;5067137;28;20044;-64
2021/09/17 02:47:11;;;;;;;2.80;0.90;;;;;;;22.45;59.48;100724.91;5050926;28;20484;-63
2021/09/17 02:49:37;;;;;;;2.30;0.75;;;;;;;22.46;59.36;100715.03;5063883;28;20131;-64
2021/09/17 02:52:03;;;;;;;2.72;0.90;;;;;;;22.46;59.19;100715.88;5067265;28;20147;-64
2021/09/17 02:54:29;;;;;;;3.50;1.00;;;;;;;22.45;59.60;100708.88;5069024;28;20411;-64
2021/09/17 02:56:55;;;;;;;2.10;0.80;;;;;;;22.46;59.17;100710.53;5068770;28;20049;-64
2021/09/17 02:59:20;;;;;;;5.05;1.05;;;;;;;22.45;59.45;100695.53;5067292;28;20048;-64
2021/09/17 03:01:46;;;;;;;4.05;0.98;;;;;;;22.44;59.25;100704.56;5061949;28;20036;-64
2021/09/17 03:04:11;;;;;;;3.35;1.00;;;;;;;22.45;59.46;100708.06;5068891;28;20730;-64
2021/09/17 03:06:37;;;;;;;3.30;0.93;;;;;;;22.45;59.30;100697.38;5068506;28;20530;-63
2021/09/17 03:09:03;;;;;;;3.08;1.00;;;;;;;22.44;59.37;100699.22;5066576;28;20044;-63
2021/09/17 03:11:28;;;;;;;3.70;1.20;;;;;;;22.44;59.29;100690.41;5067421;28;20059;-63
2021/09/17 03:13:54;;;;;;;4.25;0.93;;;;;;;22.45;59.42;100692.84;5056554;28;20041;-63
2021/09/17 03:16:20;;;;;;;3.33;1.15;;;;;;;22.45;59.49;100700.03;5068181;28;20115;-63
2021/09/17 03:18:45;;;;;;;4.93;0.93;;;;;;;22.45;59.20;100684.81;5068835;28;20044;-63
2021/09/17 03:21:11;;;;;;;3.42;0.90;;;;;;;22.44;59.21;100685.03;5046342;28;20037;-63
2021/09/17 03:23:36;;;;;;;3.97;0.98;;;;;;;22.44;59.58;100683.19;5061406;28;20084;-63
2021/09/17 03:26:02;;;;;;;2.65;0.95;;;;;;;22.44;59.33;100669.00;5061729;28;20043;-63
2021/09/17 03:28:28;;;;;;;2.40;0.82;;;;;;;22.44;59.49;100663.66;5065511;28;20044;-63
2021/09/17 03:30:53;;;;;;;2.60;0.98;;;;;;;22.44;59.44;100663.66;5066406;28;20203;-63
2021/09/17 03:33:19;;;;;;;3.17;1.00;;;;;;;22.43;59.32;100665.53;5047070;28;20040;-63
2021/09/17 03:35:45;;;;;;;5.32;1.15;;;;;;;22.44;59.13;100663.66;5062154;28;20040;-63
2021/09/17 03:38:12;;;;;;;1.83;0.90;;;;;;;22.44;59.11;100669.00;5057475;28;20056;-63
2021/09/17 03:40:39;;;;;;;2.70;0.80;;;;;;;22.43;59.05;100662.84;5068108;28;20036;-63
2021/09/17 03:43:06;;;;;;;1.77;0.80;;;;;;;22.43;59.34;100654.84;5067838;28;20025;-63
2021/09/17 03:45:34;;;;;;;2.75;0.95;;;;;;;22.43;59.15;100654.84;5064749;28;20039;-63
2021/09/17 03:48:05;;;;;;;2.92;0.80;;;;;;;22.42;59.27;100655.88;5069401;28;20028;-63
2021/09/17 03:50:30;;;;;;;1.38;0.70;;;;;;;22.42;59.51;100651.34;5066087;28;20381;-63
2021/09/17 03:52:56;;;;;;;1.98;0.70;;;;;;;22.43;59.12;100662.84;5067513;28;20052;-63
2021/09/17 03:55:21;;;;;;;4.72;1.00;;;;;;;22.41;59.36;100639.00;5067256;28;20040;-63
2021/09/17 03:57:47;;;;;;;1.48;0.70;;;;;;;22.42;59.32;100642.50;5068674;28;20361;-63
2021/09/17 04:00:13;;;;;;;1.77;0.63;;;;;;;22.41;59.25;100639.00;5060673;28;20070;-63
2021/09/17 04:02:39;;;;;;;1.73;0.73;;;;;;;22.42;59.35;100631.81;5056930;28;20063;-63
2021/09/17 04:05:05;;;;;;;1.63;0.65;;;;;;;22.42;59.16;100640.66;5067326;28;20028;-63
2021/09/17 04:07:35;;;;;;;1.30;0.63;;;;;;;22.41;59.38;100628.31;5068361;28;20028;-63
2021/09/17 04:10:01;;;;;;;2.05;0.73;;;;;;;22.41;59.43;100635.53;5070609;28;20138;-63
2021/09/17 04:12:26;;;;;;;1.17;0.55;;;;;;;22.41;59.44;100622.16;5069812;28;20543;-63
2021/09/17 04:14:52;;;;;;;2.40;0.60;;;;;;;22.42;59.47;100621.13;5070383;28;20135;-63
2021/09/17 04:17:18;;;;;;;2.67;0.80;;;;;;;22.40;59.54;100615.97;5071731;28;20106;-63
2021/09/17 04:19:43;;;;;;;2.63;0.88;;;;;;;22.41;59.78;100612.28;5045187;28;20080;-63
2021/09/17 04:22:10;;;;;;;0.82;0.50;;;;;;;22.40;60.04;100607.94;5081095;28;20183;-63
2021/09/17 04:24:37;;;;;;;1.00;0.50;;;;;;;22.41;59.85;100606.13;5070602;28;20036;-63
2021/09/17 04:27:03;;;;;;;3.50;0.73;;;;;;;22.42;59.65;100602.41;5071709;28;20041;-63
2021/09/17 04:29:29;;;;;;;2.75;0.60;;;;;;;22.41;59.75;100598.94;5070574;28;20032;-63
2021/09/17 04:31:55;;;;;;;1.10;0.55;;;;;;;22.41;59.78;100606.94;5062699;28;20041;-63
2021/09/17 04:34:20;;;;;;;1.73;0.50;;;;;;;22.41;59.98;100606.13;5068495;28;20056;-63
2021/09/17 04:36:46;;;;;;;1.92;0.75;;;;;;;22.41;60.13;100606.94;5071643;28;20032;-63
2021/09/17 04:39:11;;;;;;;2.05;0.80;;;;;;;22.41;60.08;100604.28;5053265;28;20040;-62
2021/09/17 04:41:37;;;;;;;2.88;0.85;;;;;;;22.41;60.23;100612.28;5066016;28;20045;-63
2021/09/17 04:44:03;;;;;;;3.03;0.65;;;;;;;22.41;60.28;100611.47;5064233;28;20746;-63
2021/09/17 04:46:28;;;;;;;3.60;0.60;;;;;;;22.42;60.08;100623.78;5070694;28;20048;-63
2021/09/17 04:48:54;;;;;;;1.65;0.60;;;;;;;22.41;60.12;100622.16;5070118;28;20043;-63
2021/09/17 04:51:20;;;;;;;5.63;0.75;;;;;;;22.42;60.36;100626.47;5069272;28;20031;-63
2021/09/17 04:53:45;;;;;;;0.82;0.50;;;;;;;22.42;60.46;100621.13;5069108;28;20037;-63
2021/09/17 04:56:11;;;;;;;1.55;0.57;;;;;;;22.41;60.31;100622.97;5070838;28;20518;-62
2021/09/17 04:58:37;;;;;;;1.70;0.60;;;;;;;22.42;60.17;100621.13;5071283;28;20101;-63
2021/09/17 05:01:02;;;;;;;1.90;0.50;;;;;;;22.41;60.21;100622.16;5061271;28;20036;-63
2021/09/17 05:03:28;;;;;;;1.50;0.60;;;;;;;22.41;60.32;100617.63;5069755;28;20115;-64
2021/09/17 05:05:53;;;;;;;2.17;0.50;;;;;;;22.42;60.51;100623.78;5048791;28;20095;-63
2021/09/17 05:08:19;;;;;;;1.10;0.52;;;;;;;22.41;60.22;100616.81;5036023;28;20052;-64
2021/09/17 05:10:45;;;;;;;1.95;0.50;;;;;;;22.42;60.11;100623.78;5070816;28;20048;-63
2021/09/17 05:13:11;;;;;;;1.73;0.60;;;;;;;22.41;60.47;100625.66;5052745;28;20064;-62
2021/09/17 05:15:36;;;;;;;1.02;0.50;;;;;;;22.41;60.40;100614.16;5052485;28;20698;-63
2021/09/17 05:18:02;;;;;;;1.40;0.60;;;;;;;22.41;60.31;100606.94;5060981;28;20039;-63
2021/09/17 05:20:28;;;;;;;1.38;0.60;;;;;;;22.40;60.38;100607.94;5050787;28;20128;-63
2021/09/17 05:22:53;;;;;;;1.02;0.60;;;;;;;22.41;60.51;100611.47;5070859;28;20427;-62
2021/09/17 05:25:19;;;;;;;1.73;0.50;;;;;;;22.40;60.44;100610.63;5051792;28;20537;-63
2021/09/17 05:27:45;;;;;;;0.93;0.40;;;;;;;22.41;60.28;100600.78;5041545;28;20036;-63
2021/09/17 05:30:10;;;;;;;1.33;0.60;;;;;;;22.41;60.69;100612.28;5061081;28;20477;-63
2021/09/17 05:32:36;;;;;;;1.90;0.60;;;;;;;22.40;60.64;100605.28;5052631;28;20040;-63
2021/09/17 05:35:03;;;;;;;2.08;0.50;;;;;;;22.41;60.51;100600.78;5070346;28;20039;-63
2021/09/17 05:37:29;;;;;;;1.08;0.40;;;;;;;22.40;60.63;100605.28;5050713;28;20044;-63
2021/09/17 05:39:54;;;;;;;1.25;0.63;;;;;;;22.40;60.42;100604.47;5051192;28;20044;-63
2021/09/17 05:42:20;;;;;;;1.02;0.60;;;;;;;22.40;60.82;100597.25;5066760;28;20032;-63
2021/09/17 05:44:46;;;;;;;1.20;0.40;;;;;;;22.41;60.60;100596.25;5051594;28;20088;-63
2021/09/17 05:47:11;;;;;;;0.65;0.43;;;;;;;22.41;60.76;100617.63;5069378;28;20024;-63
2021/09/17 05:49:37;;;;;;;1.40;0.50;;;;;;;22.40;60.57;100610.63;5052207;28;20364;-63
2021/09/17 05:52:03;;;;;;;0.43;0.40;;;;;;;22.40;60.74;100607.94;5064597;28;20075;-63
2021/09/17 05:54:32;;;;;;;1.13;0.50;;;;;;;22.40;60.65;100599.94;5068420;28;20095;-63
2021/09/17 05:57:00;;;;;;;1.20;0.50;;;;;;;22.41;60.76;100595.44;5032031;28;20064;-63
2021/09/17 05:59:26;;;;;;;0.80;0.45;;;;;;;22.40;60.72;100601.78;5049926;28;20039;-63
2021/09/17 06:01:52;;;;;;;1.23;0.50;;;;;;;22.41;60.78;100600.78;5056515;28;20111;-64
2021/09/17 06:04:17;;;;;;;0.85;0.43;;;;;;;22.40;60.80;100594.59;5062019;28;20495;-64
2021/09/17 06:06:46;;;;;;;0.60;0.40;;;;;;;22.40;60.78;100597.25;5034606;28;20037;-64
2021/09/17 06:09:12;;;;;;;0.85;0.50;;;;;;;22.40;60.93;100597.25;5052514;28;20049;-64
2021/09/17 06:11:37;;;;;;;1.10;0.40;;;;;;;22.41;61.13;100596.25;5069916;28;20467;-64
2021/09/17 06:14:03;;;;;;;1.42;0.52;;;;;;;22.41;61.00;100600.78;5069738;28;20498;-66
2021/09/17 06:16:29;;;;;;;1.23;0.40;;;;;;;22.41;60.93;100595.44;5045743;28;20142;-64
2021/09/17 06:19:02;;;;;;;0.73;0.40;;;;;;;22.40;60.86;100591.91;5035095;28;20040;-64
2021/09/17 06:21:28;;;;;;;1.08;0.30;;;;;;;22.40;60.80;100594.59;5051198;28;20755;-64
2021/09/17 06:23:54;;;;;;;2.15;0.52;;;;;;;22.40;60.95;100594.59;5056717;28;20028;-64
2021/09/17 06:26:19;;;;;;;2.35;0.63;;;;;;;22.40;60.78;100588.44;5051030;28;20039;-64
2021/09/17 06:28:45;;;;;;;0.85;0.40;;;;;;;22.40;61.08;100589.25;5062191;28;20024;-64
2021/09/17 06:31:10;;;;;;;2.60;0.43;;;;;;;22.41;61.14;100598.94;5068285;28;20147;-64
2021/09/17 06:33:36;;;;;;;1.27;0.43;;;;;;;22.41;60.92;100598.94;5069145;28;20494;-64
2021/09/17 06:36:02;;;;;;;1.08;0.50;;;;;;;22.40;61.10;100599.94;5056738;28;20085;-64
2021/09/17 06:38:27;;;;;;;0.30;0.30;;;;;;;22.40;61.10;100594.59;5069090;28;20041;-64
2021/09/17 06:40:53;;;;;;;0.30;0.30;;;;;;;22.40;60.96;100589.25;5037099;28;20202;-64
2021/09/17 06:43:19;;;;;;;0.45;0.40;;;;;;;22.41;61.16;100590.09;5046952;28;20051;-64
2021/09/17 06:45:44;;;;;;;0.85;0.50;;;;;;;22.41;60.99;100585.56;5033739;28;20031;-65
2021/09/17 06:48:10;;;;;;;1.27;0.40;;;;;;;22.41;60.90;100585.56;5034507;28;20035;-64
2021/09/17 06:50:36;;;;;;;1.23;0.50;;;;;;;22.40;61.06;100583.91;5057327;28;20063;-64
2021/09/17 06:53:03;;;;;;;0.60;0.43;;;;;;;22.41;61.17;100579.41;5037913;28;20337;-64
2021/09/17 06:55:30;;;;;;;1.20;0.50;;;;;;;22.40;61.32;100586.56;5050510;28;20037;-64
2021/09/17 06:58:05;;;;;;;0.30;0.30;;;;;;;22.39;61.48;100592.13;5068824;28;20107;-64
2021/09/17 07:00:32;;;;;;;;;;;;;;;22.31;61.50;100579.91;5046305;28;20037;-64
2021/09/17 07:02:59;;;;;;;0.60;0.35;;;;;;;22.39;61.40;100581.44;5063121;28;19912;-64
2021/09/17 07:05:26;;;;;;;0.35;0.30;;;;;;;22.40;61.30;100575.88;5050182;28;20119;-64
2021/09/17 07:07:58;;;;;;;1.45;0.52;;;;;;;22.41;61.40;100574.06;5050935;28;20052;-64
2021/09/17 07:10:23;;;;;;;0.73;0.40;;;;;;;22.40;61.77;100573.19;5044359;28;20250;-64
2021/09/17 07:12:49;;;;;;;0.68;0.38;;;;;;;22.40;61.38;100569.72;5069668;28;20451;-62
2021/09/17 07:15:17;;;;;;;1.63;0.70;;;;;;;22.39;61.38;100568.09;5073432;28;20033;-63
2021/09/17 07:17:43;;;;;;;1.40;0.70;;;;;;;22.40;61.60;100577.72;5068580;28;20041;-63
2021/09/17 07:20:09;;;;;;;2.78;0.40;;;;;;;22.40;62.07;100583.91;5067880;28;20035;-63
2021/09/17 07:22:35;;;;;;;3.08;0.60;;;;;;;22.40;61.83;100578.56;5066348;28;20043;-63
2021/09/17 07:25:01;;;;;;;2.63;0.88;;;;;;;22.41;62.32;100576.72;5038847;28;20028;-63
2021/09/17 07:27:26;;;;;;;1.10;0.40;;;;;;;22.40;62.32;100577.72;5039934;28;20060;-63
2021/09/17 07:29:52;;;;;;;1.95;0.40;;;;;;;22.41;62.10;100576.72;5048917;28;20025;-63
2021/09/17 07:32:17;;;;;;;1.42;0.40;;;;;;;22.40;62.57;100580.41;5037495;28;20064;-63
2021/09/17 07:34:43;;;;;;;2.78;0.60;;;;;;;22.40;62.75;100575.06;5049997;28;20063;-62
2021/09/17 07:37:09;;;;;;;1.48;0.57;;;;;;;22.41;62.56;100576.72;5079684;28;20051;-63
2021/09/17 07:39:34;;;;;;;0.98;0.40;;;;;;;22.42;62.86;100575.69;5067237;28;20479;-62
2021/09/17 07:42:00;;;;;;;0.85;0.43;;;;;;;22.41;63.00;100576.72;5080235;28;20032;-63
2021/09/17 07:44:26;;;;;;;1.02;0.35;;;;;;;22.42;63.00;100578.34;5079728;28;20040;-62
2021/09/17 07:46:52;;;;;;;7.60;1.33;;;;;;;22.42;63.06;100586.38;5079951;28;20444;-62
2021/09/17 07:49:17;;;;;;;7.78;1.85;;;;;;;22.43;63.32;100580.00;5071932;28;20040;-63
2021/09/17 07:51:43;;;;;;;7.68;2.35;;;;;;;22.44;63.41;100580.81;5045367;28;20528;-64
2021/09/17 07:54:09;;;;;;;4.50;1.20;;;;;;;22.43;63.36;100577.31;5064988;28;20132;-63
2021/09/17 07:56:34;;;;;;;11.15;2.38;;;;;;;22.43;63.45;100574.66;5057845;28;20039;-64
2021/09/17 07:59:00;;;;;;;3.63;1.35;;;;;;;22.43;63.29;100590.69;5047119;28;20427;-64
2021/09/17 08:01:25;;;;;;;7.05;1.95;;;;;;;22.42;63.44;100584.53;5065589;28;20511;-64
2021/09/17 08:03:51;;;;;;;6.10;1.40;;;;;;;22.41;62.91;100584.75;5067401;28;20028;-64
2021/09/17 08:06:17;;;;;;;3.35;1.08;;;;;;;22.40;63.47;100588.44;5048441;28;20641;-64
2021/09/17 08:08:42;;;;;;;7.22;1.30;;;;;;;22.38;63.26;100588.66;5071626;28;20028;-64
2021/09/17 08:11:08;;;;;;;3.72;0.95;;;;;;;22.37;63.26;100583.53;5050729;28;20051;-64
2021/09/17 08:13:34;;;;;;;2.60;0.80;;;;;;;22.34;63.34;100590.13;5033741;28;20044;-64
2021/09/17 08:15:59;;;;;;;5.18;1.00;;;;;;;22.34;63.01;100583.97;5047613;28;20033;-64
2021/09/17 08:18:25;;;;;;;2.85;0.70;;;;;;;22.32;63.30;100578.03;5047538;28;20117;-63
2021/09/17 08:20:53;;;;;;;3.72;0.90;;;;;;;22.31;63.04;100584.41;5047356;28;20052;-63
2021/09/17 08:23:21;;;;;;;1.98;0.70;;;;;;;22.28;63.05;100583.00;5047295;28;20033;-64
2021/09/17 08:25:50;;;;;;;1.05;0.60;;;;;;;22.26;63.32;100582.41;5047549;28;20091;-64
2021/09/17 08:28:16;;;;;;;1.55;0.55;;;;;;;22.27;63.17;100583.22;5047796;28;20120;-63
2021/09/17 08:30:41;;;;;;;2.50;0.52;;;;;;;22.24;63.31;100579.13;5046990;28;20128;-64
2021/09/17 08:33:07;;;;;;;0.75;0.32;;;;;;;22.23;63.32;100579.34;5048028;28;20025;-64
2021/09/17 08:35:32;;;;;;;3.05;0.50;;;;;;;22.21;63.16;100579.56;5046769;28;20041;-64
2021/09/17 08:37:58;;;;;;;0.63;0.40;;;;;;;22.20;63.13;100574.44;5047850;28;20702;-64
2021/09/17 08:40:28;;;;;;;0.93;0.50;;;;;;;22.18;63.55;100576.53;5047612;28;20112;-64
2021/09/17 08:42:55;;;;;;;1.60;0.57;;;;;;;22.17;63.42;100575.69;5047715;28;20025;-64
2021/09/17 08:45:21;;;;;;;0.55;0.35;;;;;;;22.16;63.53;100586.63;5047060;28;20472;-63
2021/09/17 08:47:51;;;;;;;1.05;0.40;;;;;;;22.13;63.24;100593.22;5051873;28;20116;-64
2021/09/17 08:50:18;;;;;;;1.63;0.45;;;;;;;22.14;63.50;100599.38;5033743;28;20033;-64
2021/09/17 08:52:44;;;;;;;2.15;0.40;;;;;;;22.13;63.32;100597.75;5024180;28;20040;-64
2021/09/17 08:55:10;;;;;;;2.40;0.30;;;;;;;22.11;63.66;100611.31;5033420;28;20055;-64
2021/09/17 08:57:35;;;;;;;0.73;0.30;;;;;;;22.11;63.46;100606.78;5051307;28;20056;-64
2021/09/17 09:00:02;;;;;;;3.50;0.40;;;;;;;22.11;63.58;100620.16;5050924;28;20411;-63
2021/09/17 09:02:29;;;;;;;1.35;0.40;;;;;;;22.11;63.68;100620.16;5024313;28;20040;-64
2021/09/17 09:04:59;;;;;;;1.00;0.30;;;;;;;22.09;63.64;100630.25;5051196;28;20037;-64
2021/09/17 09:07:38;;;;;;;0.52;0.30;;;;;;;22.11;64.00;100627.34;5050684;28;20021;-64
2021/09/17 09:10:09;;;;;;;1.00;0.30;;;;;;;22.11;63.91;100628.16;5058045;28;20098;-64
2021/09/17 09:12:35;;;;;;;0.50;0.40;;;;;;;22.13;63.77;100632.47;5053275;28;20360;-64
2021/09/17 09:15:25;;;;;;;1.33;0.65;;;;;;;22.08;63.94;100631.25;5070205;28;20045;-64
2021/09/17 09:17:51;;;;;;;1.85;0.73;;;;;;;22.12;63.97;100634.31;5071379;28;20032;-64
2021/09/17 09:20:30;;;;;;;0.30;0.30;;;;;;;22.09;63.92;100629.41;5052255;28;20040;-63
2021/09/17 09:23:08;;;;;;;0.30;0.30;;;;;;;22.09;63.97;100635.59;5071201;28;20104;-63
2021/09/17 09:25:35;;;;;;;1.73;0.30;;;;;;;22.11;64.09;100640.72;5070314;28;20032;-64
2021/09/17 09:28:11;;;;;;;2.13;0.50;;;;;;;22.09;64.26;100635.59;5070616;28;20029;-64
2021/09/17 09:30:37;;;;;;;1.77;0.50;;;;;;;22.10;64.13;100637.22;5069859;28;20029;-64
2021/09/17 09:33:23;;;;;;;0.65;0.32;;;;;;;22.07;64.32;100644.81;5071015;28;20093;-64
2021/09/17 09:35:56;;;;;;;1.30;0.43;;;;;;;22.08;64.30;100647.28;5051939;28;20056;-63
2021/09/17 09:38:43;;;;;;;0.80;0.43;;;;;;;22.07;64.43;100645.66;5070966;28;20059;-64
2021/09/17 09:41:15;;;;;;;0.93;0.43;;;;;;;22.10;64.29;100658.59;5027299;28;20037;-63
2021/09/17 09:43:56;;;;;;;1.65;0.50;;;;;;;22.08;64.38;100659.81;5070573;28;20584;-63
2021/09/17 09:46:41;;;;;;;1.55;0.50;;;;;;;22.05;64.28;100655.72;5070107;28;20097;-64
2021/09/17 09:49:14;;;;;;;0.73;0.60;;;;;;;22.09;64.44;100672.97;5070222;28;20090;-64
2021/09/17 09:51:55;;;;;;;0.73;0.40;;;;;;;22.09;64.42;100672.97;5069622;28;20028;-64
2021/09/17 09:54:23;;;;;;;0.75;0.30;;;;;;;22.09;64.63;100683.66;5070756;28;20036;-63
2021/09/17 09:56:51;;;;;;;1.35;0.80;;;;;;;22.08;64.61;100687.34;5070389;28;20036;-64
2021/09/17 09:59:20;;;;;;;1.17;0.40;;;;;;;22.09;64.57;100691.69;5070578;28;20114;-64
2021/09/17 10:01:46;;;;;;;0.80;0.40;;;;;;;22.10;64.36;100695.19;5059433;28;20060;-64
2021/09/17 10:04:13;;;;;;;0.32;0.30;;;;;;;22.10;64.56;100695.19;5052197;28;20125;-63
2021/09/17 10:06:39;;;;;;;3.28;0.50;;;;;;;22.10;64.93;100692.50;5068621;28;20032;-64
2021/09/17 10:09:09;;;;;;;1.75;0.50;;;;;;;22.09;64.55;100698.84;5061216;28;20456;-63
2021/09/17 10:11:37;;;;;;;0.45;0.30;;;;;;;22.07;64.80;100696.41;5068985;28;20048;-63
2021/09/17 10:14:06;;;;;;;0.60;0.50;;;;;;;22.06;64.90;100700.09;5070282;28;20121;-64
2021/09/17 10:16:35;;;;;;;0.82;0.50;;;;;;;22.06;64.84;100699.28;5069026;28;20037;-64
2021/09/17 10:19:00;;;;;;;1.10;0.50;;;;;;;22.05;64.97;100693.13;5069895;28;20029;-64
2021/09/17 10:21:55;;;;;;;1.73;0.60;;;;;;;22.01;65.02;100691.09;5069243;28;20033;-64
2021/09/17 10:24:27;;;;;;;1.85;0.57;;;;;;;22.01;64.65;100681.22;5059032;28;20029;-63
2021/09/17 10:27:11;;;;;;;1.67;0.80;;;;;;;22.01;64.71;100688.41;5069806;28;20145;-63
2021/09/17 10:29:46;;;;;;;1.00;0.50;;;;;;;22.03;64.74;100691.69;5069421;28;20389;-63
2021/09/17 10:32:26;;;;;;;2.25;0.68;;;;;;;21.99;64.18;100696.63;5069550;28;20032;-63
2021/09/17 10:35:18;;;;;;;1.50;0.60;;;;;;;21.99;64.41;100699.31;5069741;28;20040;-63
2021/09/17 10:38:10;;;;;;;1.27;0.68;;;;;;;22.00;64.02;100700.94;5064441;28;20052;-63
2021/09/17 10:40:43;;;;;;;0.80;0.65;;;;;;;22.02;64.00;100703.41;5069017;28;20032;-64
2021/09/17 10:43:08;;;;;;;1.85;0.70;;;;;;;22.04;63.80;100704.81;5069479;28;20028;-63
2021/09/17 10:45:41;;;;;;;2.45;0.80;;;;;;;22.02;63.77;100709.56;5068485;28;20039;-64
2021/09/17 10:48:08;;;;;;;0.82;0.65;;;;;;;22.05;63.59;100709.16;5069683;28;20029;-63
2021/09/17 10:50:51;;;;;;;1.70;0.80;;;;;;;22.00;63.53;100706.28;5068546;28;20134;-64
2021/09/17 10:53:41;;;;;;;2.00;0.90;;;;;;;22.00;63.30;100710.81;5069316;28;20044;-64
2021/09/17 10:56:16;;;;;;;2.17;1.00;;;;;;;22.01;63.44;100713.28;5068951;28;20032;-63
2021/09/17 10:58:46;;;;;;;2.78;0.90;;;;;;;22.03;63.27;100716.53;5069074;28;20102;-63
2021/09/17 11:01:13;;;;;;;2.00;1.10;;;;;;;;;;5068238;28;20071;-63
2021/09/17 11:03:39;;;;;;;2.08;1.00;;;;;;;22.03;63.31;100711.19;5068706;28;20456;-64
2021/09/17 11:08:50;;;;;;;1.40;0.90;;;;;;;22.04;63.12;100720.84;5055587;28;20024;-63
2021/09/17 11:11:34;;;;;;;2.38;1.10;;;;;;;22.00;63.03;100724.16;5068521;28;20048;-63
2021/09/17 11:14:03;;;;;;;3.78;1.10;;;;;;;22.03;63.31;100723.72;5044282;28;20040;-63
2021/09/17 11:16:30;;;;;;;2.30;1.05;;;;;;;22.04;63.21;100723.50;5049761;28;20028;-63
2021/09/17 11:19:05;;;;;;;2.70;1.08;;;;;;;22.02;63.03;100720.25;5041772;28;20066;-64
2021/09/17 11:21:38;;;;;;;4.05;1.50;;;;;;;22.01;63.17;100728.47;5050012;28;20454;-63
2021/09/17 11:24:14;;;;;;;4.88;1.20;;;;;;;22.02;63.16;100732.78;5042042;28;20032;-63
2021/09/17 11:26:44;;;;;;;3.85;1.30;;;;;;;22.01;63.14;100729.28;5067928;28;20024;-63
2021/09/17 11:29:12;;;;;;;3.38;1.33;;;;;;;22.02;63.30;100724.78;5068778;28;20040;-63
2021/09/17 11:31:52;;;;;;;5.00;1.25;;;;;;;21.98;63.38;100718.22;5068136;28;20039;-64